Palma De Mallorca, Spain

7:56 PM CEST on September 01, 2015 (GMT +0200)
Ciudad Jardin | | Change Station
CLOSE
Current Station
Personal Weather Station
Location: Palma De Mallorca, ILLES BALEARS
Elevation: 20 ft
Nearby Weather Stations

Elev 20 ft 39.55 °N, 2.69 °E | Updated 5 seconds ago

Partly Cloudy
Partly Cloudy
78.1 °F
Feels Like 80 °F
N
13.8
Wind Variable Wind from NNE
Gusts 13.8 mph

Today
High -- | Low -- °F
--% Chance of Precip.
Yesterday
High -- | Low -- °F
Precip. -- in
7:16 AM 8:20 PM
Waning Gibbous, 87% visible
Pressure 29.98 in
Visibility 6.2 miles
Clouds Few 2200 ft
Heat Index 80 °F
Dew Point 70 °F
Humidity 75%
Rainfall 0.15 in
Snow Depth Not available.
UV 0 out of 12
Pollen Not available.
Air Quality Not available.
Flu Activity Not available.
METAR LEPA 011730Z 06013KT 9999 FEW022 26/21 Q1015 NOSIG
Pressure 29.98 in
Visibility 6.2 miles
Clouds Few 2200 ft
Heat Index 80 °F
Dew Point 70 °F
Humidity 75%
Rainfall 0.15 in
Snow Depth Not available.
UV 0 out of 12
Pollen Not available.
Air Quality Not available.
Flu Activity Not available.
METAR LEPA 011730Z 06013KT 9999 FEW022 26/21 Q1015 NOSIG

10-Day Weather Forecast

×

Almanac

Astronomy

Sep. 01, 2015 Rise Set
Actual Time
Civil Twilight
Nautical Twilight
Astronomical Twilight
Moon
Length of Visible Light
Length of Day
Tomorrow will be .
, % of the Moon is Illuminated

Today's Extremes

Country Highs Country Lows

Community

WunderPhotos

Upload Photos

1,851,569 photos uploaded!

WunderBlogs® & News

Nearby

Air Quality

  Air Quality AQ Index Pollutant
Not available.

Snow Depth

Station Depth Elevation

Earthquake Activity

City Distance Mag. Time & Date
Minimum magnitude displayed is 2.5.

Coastal Water Temperatures

Place Temperature

Stations

Nearby Weather Stations

Station Location Temp. Windchill Dew Point Humidity Wind Precip. Elev Updated Type